Orbital elements of INTELSAT 906
| Launched | 5 September 2002 |
| Flight ended | – |
| Launch site | Europe's Spaceport, Kourou, French Guiana |
| Owner | International Telecommunications Satellite Organization (INTELSAT) |
| NORAD ID | 27513 |
| Alternative names |
IS-906 |
| Date fetched |
Epoch osculation |
Inc. [°] |
Ecc. | RA asc node [hr] |
Arg Peri. [°] |
Mean anom [°] |
Mean motion [rev/day] |
Abs. mag |
| Date fetched |
Epoch osculation |
Inc. [°] |
Ecc. | RA asc node [hr] |
Arg Peri. [°] |
Mean anom [°] |
Mean motion [rev/day] |
Abs. mag |
| 2026 May 09 17:57 | 2026 May 08 23:37:17 | 5.7054 | 0.00045 | 4.8928 | 338.6033 | 233.2758 | 1.00271 | – |
| 2026 May 08 17:57 | 2026 May 07 23:40:00 | 5.7028 | 0.00045 | 4.8936 | 337.5392 | 233.2758 | 1.00271 | – |
| 2026 May 07 17:58 | 2026 May 06 23:42:32 | 5.7002 | 0.00044 | 4.8944 | 336.7564 | 233.2758 | 1.00271 | – |
| 2026 May 06 17:57 | 2026 May 05 23:44:55 | 5.6976 | 0.00042 | 4.8952 | 345.3767 | 233.2758 | 1.00271 | – |
| 2026 May 05 17:57 | 2026 May 05 11:46:31 | 5.6963 | 0.00042 | 4.8956 | 345.0352 | 233.2758 | 1.00271 | – |
| 2026 May 04 17:57 | 2026 May 03 23:50:23 | 5.6924 | 0.00041 | 4.8968 | 343.4615 | 233.2758 | 1.00271 | – |
| 2026 May 03 17:57 | 2026 May 03 11:51:45 | 5.6910 | 0.00041 | 4.8972 | 343.1243 | 233.2758 | 1.00271 | – |
| 2026 May 02 17:57 | 2026 May 02 10:11:39 | 5.6882 | 0.00041 | 4.8980 | 341.8238 | 233.2758 | 1.00271 | – |
| 2026 May 01 17:56 | 2026 May 01 11:56:48 | 5.6858 | 0.00041 | 4.8988 | 340.9503 | 233.2758 | 1.00271 | – |
| 2026 Apr 30 17:56 | 2026 Apr 30 00:00:40 | 5.6818 | 0.00041 | 4.8999 | 339.3237 | 233.2758 | 1.00271 | – |
| 2026 Apr 29 17:57 | 2026 Apr 29 12:01:57 | 5.6805 | 0.00041 | 4.9003 | 338.9279 | 233.2758 | 1.00271 | – |
| 2026 Apr 28 17:56 | 2026 Apr 28 12:04:30 | 5.6779 | 0.00041 | 4.9011 | 337.7623 | 233.2758 | 1.00271 | – |
| 2026 Apr 27 17:58 | 2026 Apr 27 00:08:18 | 5.6741 | 0.00040 | 4.9023 | 336.0928 | 233.2758 | 1.00271 | – |
| 2026 Apr 26 17:58 | 2026 Apr 25 23:30:38 | 5.6715 | 0.00040 | 4.9032 | 334.9355 | 233.2758 | 1.00271 | – |
| 2026 Apr 25 17:58 | 2026 Apr 25 12:12:15 | 5.6703 | 0.00040 | 4.9036 | 334.0014 | 233.2758 | 1.00271 | – |
| 2026 Apr 24 17:59 | 2026 Apr 24 00:16:02 | 5.6665 | 0.00039 | 4.9049 | 335.9506 | 233.2758 | 1.00271 | – |
| 2026 Apr 23 17:57 | 2026 Apr 22 23:02:23 | 5.6639 | 0.00039 | 4.9057 | 334.6430 | 233.2758 | 1.00271 | – |
| 2026 Apr 22 17:57 | 2026 Apr 22 00:21:09 | 5.6615 | 0.00039 | 4.9065 | 333.5422 | 233.2758 | 1.00271 | – |
| 2026 Apr 21 17:57 | 2026 Apr 21 12:22:26 | 5.6602 | 0.00039 | 4.9069 | 332.8556 | 233.2758 | 1.00271 | – |
| 2026 Apr 20 17:57 | 2026 Apr 20 12:25:01 | 5.6578 | 0.00039 | 4.9077 | 331.5185 | 233.2758 | 1.00271 | – |
| 2026 Apr 19 17:58 | 2026 Apr 19 12:27:35 | 5.6553 | 0.00038 | 4.9085 | 330.2067 | 233.2758 | 1.00271 | – |
| 2026 Apr 18 17:56 | 2026 Apr 18 00:31:24 | 5.6516 | 0.00038 | 4.9098 | 328.0489 | 233.2758 | 1.00271 | – |
| 2026 Apr 16 17:57 | 2026 Apr 15 23:31:38 | 5.6464 | 0.00037 | 4.9114 | 325.0892 | 233.2758 | 1.00271 | – |
| 2026 Apr 14 17:57 | 2026 Apr 14 10:57:41 | 5.6425 | 0.00037 | 4.9126 | 322.8554 | 233.2758 | 1.00271 | – |
| 2026 Apr 13 17:57 | 2026 Apr 13 01:22:51 | 5.6389 | 0.00037 | 4.9138 | 320.6556 | 233.2758 | 1.00271 | – |
| 2026 Apr 12 17:57 | 2026 Apr 12 11:02:53 | 5.6374 | 0.00036 | 4.9143 | 319.7670 | 233.2758 | 1.00271 | – |